Time;durP1;ratioP1;P1;durP2;ratioP2;P2;SDS_P1;SDS_P2;PMS_P1;PMS_P2;Temp;Humidity;BMP_temperature;BMP_pressure;BME280_temperature;BME280_humidity;BME280_pressure;Samples;Min_cycle;Max_cycle;Signal;HPM_P1;HPM_P2
2021/05/17 00:02:34;;;;;;;1.10;0.22;;;19.30;33.70;;;;;;6333980;28;20080;-82
2021/05/17 00:05:36;;;;;;;7.75;0.50;;;19.30;33.90;;;;;;6330455;28;20032;-83
2021/05/17 00:08:37;;;;;;;4.93;0.90;;;19.20;34.10;;;;;;6312283;28;20334;-83
2021/05/17 00:11:38;;;;;;;1.85;0.60;;;19.20;34.30;;;;;;6295078;28;20483;-83
2021/05/17 00:14:40;;;;;;;1.55;0.68;;;19.10;34.50;;;;;;6314519;28;20040;-83
2021/05/17 00:17:42;;;;;;;2.65;0.68;;;19.10;34.40;;;;;;6295554;28;20173;-83
2021/05/17 00:20:45;;;;;;;1.80;0.52;;;19.10;34.40;;;;;;6318345;28;20036;-83
2021/05/17 00:23:46;;;;;;;3.00;0.68;;;19.00;34.50;;;;;;6309344;28;20078;-84
2021/05/17 00:26:48;;;;;;;1.85;0.68;;;18.90;34.80;;;;;;6306808;28;20448;-83
2021/05/17 00:29:49;;;;;;;1.90;0.70;;;18.90;34.90;;;;;;6312521;28;20059;-83
2021/05/17 00:32:52;;;;;;;4.00;0.68;;;18.80;35.00;;;;;;6297529;28;20078;-83
2021/05/17 00:35:53;;;;;;;0.40;0.30;;;18.70;35.40;;;;;;6294175;28;20361;-83
2021/05/17 00:38:55;;;;;;;6.13;0.90;;;18.70;36.20;;;;;;6309832;28;20111;-82
2021/05/17 00:41:57;;;;;;;3.95;0.70;;;18.60;36.70;;;;;;6299654;28;20032;-82
2021/05/17 00:44:58;;;;;;;3.67;0.32;;;18.50;37.70;;;;;;6318337;28;20108;-83
2021/05/17 00:48:01;;;;;;;1.08;0.30;;;18.40;37.30;;;;;;6327748;28;20054;-84
2021/05/17 00:51:07;;;;;;;0.68;0.43;;;18.40;37.50;;;;;;6312080;28;20176;-82
2021/05/17 00:54:08;;;;;;;3.10;0.75;;;18.40;37.70;;;;;;6303337;28;20040;-82
2021/05/17 00:57:12;;;;;;;0.75;0.47;;;18.40;37.90;;;;;;6311076;28;20094;-82
2021/05/17 01:00:16;;;;;;;2.03;0.32;;;18.30;38.00;;;;;;6310880;28;20036;-83
2021/05/17 01:03:28;;;;;;;3.30;0.80;;;18.30;38.20;;;;;;6327013;28;20445;-82
2021/05/17 01:06:32;;;;;;;1.73;0.45;;;18.30;38.40;;;;;;6306391;28;20472;-83
2021/05/17 01:09:36;;;;;;;2.85;0.50;;;18.20;38.40;;;;;;6327534;28;20036;-83
2021/05/17 01:12:38;;;;;;;0.82;0.55;;;18.10;38.60;;;;;;6291400;28;20074;-83
2021/05/17 01:15:39;;;;;;;2.30;0.57;;;18.00;38.70;;;;;;6284345;28;20048;-83
2021/05/17 01:18:41;;;;;;;2.63;0.63;;;18.00;38.70;;;;;;6274166;28;20033;-83
2021/05/17 01:21:52;;;;;;;1.25;0.40;;;17.90;38.80;;;;;;6294812;28;20123;-84
2021/05/17 01:24:56;;;;;;;1.17;0.30;;;17.80;38.80;;;;;;6296439;28;20101;-84
2021/05/17 01:27:58;;;;;;;2.78;0.88;;;17.70;38.90;;;;;;6325521;28;20449;-85
2021/05/17 01:31:02;;;;;;;2.53;0.70;;;17.70;39.00;;;;;;6300845;28;20033;-83
2021/05/17 01:34:09;;;;;;;1.00;0.65;;;17.60;39.10;;;;;;6320844;28;20081;-83
2021/05/17 01:37:14;;;;;;;2.22;0.60;;;17.50;39.20;;;;;;6330839;28;20117;-84
2021/05/17 01:40:19;;;;;;;0.57;0.25;;;17.40;39.30;;;;;;6304256;28;20430;-82
2021/05/17 01:43:23;;;;;;;1.38;0.43;;;17.30;39.40;;;;;;6327727;28;20066;-83
2021/05/17 01:46:28;;;;;;;2.63;0.55;;;17.30;39.50;;;;;;6314685;28;20063;-83
2021/05/17 01:49:51;;;;;;;1.38;0.43;;;17.20;39.60;;;;;;6321306;28;20425;-83
2021/05/17 01:52:54;;;;;;;0.80;0.50;;;17.20;39.60;;;;;;6307902;28;20408;-83
2021/05/17 01:55:56;;;;;;;5.97;0.77;;;17.10;39.60;;;;;;6323077;28;20028;-83
2021/05/17 01:58:58;;;;;;;2.67;0.52;;;17.00;39.70;;;;;;6299412;28;20028;-84
2021/05/17 02:02:00;;;;;;;2.55;0.40;;;17.10;39.90;;;;;;6305368;28;20035;-83
2021/05/17 02:05:06;;;;;;;3.47;0.52;;;17.00;40.00;;;;;;6306578;28;20119;-83
2021/05/17 02:08:11;;;;;;;0.90;0.43;;;17.00;40.10;;;;;;6322646;28;20048;-82
2021/05/17 02:11:14;;;;;;;6.80;0.65;;;17.00;40.10;;;;;;6305522;28;20032;-83
2021/05/17 02:14:23;;;;;;;3.87;0.60;;;17.00;40.10;;;;;;6294189;28;20040;-83
2021/05/17 02:17:25;;;;;;;2.45;0.50;;;17.10;40.20;;;;;;6297461;28;20058;-84
2021/05/17 02:20:31;;;;;;;1.55;0.47;;;17.10;40.80;;;;;;6323600;28;20048;-83
2021/05/17 02:23:33;;;;;;;3.33;0.70;;;17.10;40.30;;;;;;6288991;28;20039;-82
2021/05/17 02:26:34;;;;;;;3.50;0.50;;;17.10;41.00;;;;;;6325774;28;20036;-83
2021/05/17 02:29:37;;;;;;;1.13;0.43;;;17.10;40.50;;;;;;6307002;28;20040;-82
2021/05/17 02:32:38;;;;;;;3.58;0.60;;;17.10;40.60;;;;;;6323276;28;20036;-83
2021/05/17 02:35:42;;;;;;;3.42;0.80;;;17.10;40.60;;;;;;6322107;28;20035;-83
2021/05/17 02:38:46;;;;;;;2.05;0.57;;;17.10;40.80;;;;;;6301119;28;20094;-83
2021/05/17 02:41:49;;;;;;;8.73;0.70;;;17.10;40.80;;;;;;6298319;28;20043;-82
2021/05/17 02:44:50;;;;;;;1.10;0.25;;;17.10;40.90;;;;;;6296547;28;20044;-82
2021/05/17 02:47:54;;;;;;;6.53;0.80;;;17.10;41.00;;;;;;6281383;28;20032;-82
2021/05/17 02:50:56;;;;;;;0.65;0.32;;;17.10;41.00;;;;;;6287172;28;20032;-82
2021/05/17 02:54:09;;;;;;;0.93;0.43;;;17.10;41.30;;;;;;6278599;28;20036;-83
2021/05/17 02:57:13;;;;;;;5.20;0.90;;;17.10;41.40;;;;;;6291677;28;20052;-82
2021/05/17 03:00:32;;;;;;;3.47;0.73;;;17.10;41.60;;;;;;6323100;28;20432;-83
2021/05/17 03:03:42;;;;;;;3.92;0.90;;;17.10;41.70;;;;;;6324027;28;20073;-83
2021/05/17 03:07:07;;;;;;;0.63;0.47;;;17.10;41.70;;;;;;6323326;28;20066;-83
2021/05/17 03:10:11;;;;;;;4.40;0.70;;;17.00;41.50;;;;;;6311547;28;20119;-83
2021/05/17 03:13:18;;;;;;;1.25;0.40;;;17.00;41.20;;;;;;6311173;28;20028;-83
2021/05/17 03:16:21;;;;;;;3.00;0.70;;;17.00;40.70;;;;;;6298973;28;20050;-83
2021/05/17 03:19:23;;;;;;;3.72;0.50;;;17.00;40.50;;;;;;6322693;28;20060;-82
2021/05/17 03:22:29;;;;;;;0.63;0.30;;;17.10;40.20;;;;;;6316547;28;20039;-84
2021/05/17 03:25:34;;;;;;;4.38;0.45;;;17.10;40.10;;;;;;6307870;28;20427;-83
2021/05/17 03:28:35;;;;;;;1.98;0.30;;;17.10;40.30;;;;;;6283019;28;20048;-84
2021/05/17 03:31:36;;;;;;;0.73;0.30;;;17.20;40.30;;;;;;6322480;28;20127;-82
2021/05/17 03:34:38;;;;;;;1.67;0.60;;;17.20;40.40;;;;;;6305582;28;20050;-82
2021/05/17 03:37:40;;;;;;;2.10;0.50;;;17.30;40.50;;;;;;6301221;28;20055;-83
2021/05/17 03:40:41;;;;;;;4.10;0.40;;;17.10;40.40;;;;;;6321749;28;20120;-82
2021/05/17 03:43:42;;;;;;;1.83;0.60;;;17.10;40.10;;;;;;6316519;28;20048;-83
2021/05/17 03:46:43;;;;;;;2.97;0.80;;;17.10;40.00;;;;;;6322505;28;20106;-83
2021/05/17 03:49:44;;;;;;;0.90;0.40;;;17.10;40.00;;;;;;6298272;28;20036;-84
2021/05/17 03:52:45;;;;;;;3.63;0.55;;;17.10;40.30;;;;;;6289443;28;20074;-83
2021/05/17 03:55:46;;;;;;;2.97;0.70;;;17.10;40.50;;;;;;6293426;28;20036;-82
2021/05/17 03:58:47;;;;;;;0.90;0.30;;;17.00;40.40;;;;;;6302329;28;20051;-82
2021/05/17 04:01:49;;;;;;;3.15;0.65;;;17.00;40.50;;;;;;6305382;28;20039;-83
2021/05/17 04:14:16;;;;;;;4.47;0.63;;;17.00;41.30;;;;;;6321821;28;20036;-83
2021/05/17 04:17:17;;;;;;;2.75;0.60;;;16.90;41.60;;;;;;6324745;28;20036;-83
2021/05/17 04:20:19;;;;;;;2.65;0.90;;;16.90;42.00;;;;;;6322633;28;20032;-82
2021/05/17 04:23:23;;;;;;;5.53;0.80;;;16.80;42.20;;;;;;6329068;28;20044;-83
2021/05/17 04:26:24;;;;;;;10.20;0.80;;;16.80;42.70;;;;;;6308117;28;20036;-83
2021/05/17 04:29:27;;;;;;;1.67;0.60;;;16.80;43.00;;;;;;6330285;28;20032;-84
2021/05/17 04:32:30;;;;;;;2.95;0.65;;;16.70;43.20;;;;;;6324367;28;20032;-83
2021/05/17 04:35:31;;;;;;;5.07;0.57;;;16.70;43.20;;;;;;6320754;28;20043;-82
2021/05/17 04:38:32;;;;;;;3.25;1.08;;;16.60;43.30;;;;;;6321491;28;20078;-84
2021/05/17 04:41:33;;;;;;;4.95;0.73;;;16.70;43.50;;;;;;6301689;28;20036;-83
2021/05/17 04:44:34;;;;;;;3.25;0.75;;;16.70;43.50;;;;;;6300136;28;20485;-83
2021/05/17 04:47:36;;;;;;;6.38;0.95;;;16.70;43.50;;;;;;6305277;28;20047;-83
2021/05/17 04:50:37;;;;;;;1.17;0.60;;;16.70;43.40;;;;;;6300477;28;20033;-82
2021/05/17 04:53:38;;;;;;;0.80;0.50;;;16.80;43.50;;;;;;6306815;28;20032;-84
2021/05/17 04:56:39;;;;;;;1.75;0.80;;;16.80;43.60;;;;;;6324393;28;20103;-85
2021/05/17 04:59:40;;;;;;;2.95;0.60;;;16.80;43.90;;;;;;6327148;28;20039;-85
2021/05/17 05:02:45;;;;;;;3.53;1.00;;;16.80;44.00;;;;;;6303949;28;20044;-84
2021/05/17 05:05:53;;;;;;;4.57;0.50;;;16.70;44.10;;;;;;6310424;28;20097;-85
2021/05/17 05:08:54;;;;;;;2.22;0.50;;;16.70;44.20;;;;;;6322928;28;20089;-83
2021/05/17 05:11:55;;;;;;;5.07;0.60;;;16.70;44.20;;;;;;6307802;28;20444;-83
2021/05/17 05:14:56;;;;;;;2.15;1.15;;;16.70;44.30;;;;;;6262143;28;20028;-83
2021/05/17 05:17:57;;;;;;;7.38;1.05;;;16.80;44.50;;;;;;6285205;28;20036;-84
2021/05/17 05:20:59;;;;;;;1.42;1.30;;;16.80;44.90;;;;;;6312567;28;20032;-82
2021/05/17 05:24:01;;;;;;;6.05;1.17;;;16.80;45.10;;;;;;6307073;28;20064;-83
2021/05/17 05:33:40;;;;;;;2.00;0.90;;;17.10;45.20;;;;;;6214458;28;20486;-83
2021/05/17 05:36:41;;;;;;;6.80;0.63;;;17.10;44.90;;;;;;6222979;28;20029;-84
2021/05/17 05:39:42;;;;;;;2.05;0.80;;;17.20;44.70;;;;;;6243694;28;20475;-83
2021/05/17 05:42:45;;;;;;;2.97;0.88;;;17.30;44.40;;;;;;6207361;28;20049;-84
2021/05/17 05:45:46;;;;;;;4.55;0.77;;;17.30;44.10;;;;;;6244575;28;20041;-83
2021/05/17 05:48:48;;;;;;;7.25;0.90;;;17.40;44.10;;;;;;6224254;28;20543;-83
2021/05/17 05:51:49;;;;;;;6.85;0.65;;;17.40;44.10;;;;;;6212525;28;20415;-85
2021/05/17 05:54:51;;;;;;;5.13;0.73;;;17.40;44.00;;;;;;6238902;28;20029;-83
2021/05/17 05:57:53;;;;;;;1.75;0.80;;;17.40;44.10;;;;;;6228337;28;20145;-82
2021/05/17 06:00:57;;;;;;;1.95;0.63;;;17.50;44.10;;;;;;6208864;28;20038;-83
2021/05/17 06:03:58;;;;;;;5.93;1.25;;;17.60;44.10;;;;;;6262726;28;20107;-82
2021/05/17 06:07:00;;;;;;;2.13;0.73;;;17.60;44.10;;;;;;6313792;28;20081;-84
2021/05/17 06:10:02;;;;;;;1.67;0.70;;;17.70;44.00;;;;;;6300221;28;20120;-83
2021/05/17 06:13:04;;;;;;;8.27;0.93;;;17.70;43.90;;;;;;6297897;28;20124;-84
2021/05/17 06:16:09;;;;;;;7.85;0.88;;;17.70;43.80;;;;;;6291749;28;20029;-83
2021/05/17 06:19:15;;;;;;;2.38;0.65;;;17.90;44.10;;;;;;6303995;28;20032;-82
2021/05/17 06:22:16;;;;;;;3.95;0.90;;;17.90;44.10;;;;;;6300726;28;20345;-82
2021/05/17 06:25:18;;;;;;;8.55;0.88;;;18.10;44.00;;;;;;6290082;28;20048;-82
2021/05/17 06:28:23;;;;;;;2.53;0.85;;;18.20;44.50;;;;;;6289261;28;20032;-84
2021/05/17 06:31:25;;;;;;;3.67;1.00;;;18.30;43.80;;;;;;6306439;28;20116;-84
2021/05/17 06:34:26;;;;;;;3.50;0.82;;;18.40;43.40;;;;;;6316503;28;20032;-83
2021/05/17 06:37:28;;;;;;;2.22;0.80;;;18.50;43.30;;;;;;6297704;28;20145;-84
2021/05/17 06:40:29;;;;;;;3.17;0.70;;;18.60;43.20;;;;;;6282995;28;20043;-83
2021/05/17 06:43:32;;;;;;;4.47;1.05;;;18.60;42.90;;;;;;6303857;28;20040;-83
2021/05/17 06:47:35;;;;;;;;;;;;;;;;;;;;;
2021/05/17 06:50:59;;;;;;;5.07;0.55;;;18.60;42.70;;;;;;6141263;28;20031;-84
2021/05/17 06:54:30;;;;;;;2.47;0.60;;;18.50;42.60;;;;;;6185000;28;20358;-84
2021/05/17 07:05:06;;;;;;;3.47;0.75;;;18.30;42.30;;;;;;6133701;29;20051;-82
2021/05/17 07:14:31;;;;;;;11.93;1.27;;;18.30;42.30;;;;;;6124271;29;20470;-83
2021/05/17 07:17:32;;;;;;;3.60;0.95;;;18.20;42.30;;;;;;6133063;29;20044;-83
2021/05/17 07:23:42;;;;;;;1.10;0.98;;;18.30;42.30;;;;;;6130460;29;20160;-82
2021/05/17 07:26:44;;;;;;;3.10;0.85;;;18.30;42.20;;;;;;6158837;28;20038;-83
2021/05/17 07:29:46;;;;;;;3.40;0.63;;;18.40;42.10;;;;;;6212938;28;20478;-83
2021/05/17 07:33:25;;;;;;;5.28;0.98;;;18.40;42.10;;;;;;6170571;28;20117;-83
2021/05/17 07:36:32;;;;;;;4.40;1.30;;;18.40;42.10;;;;;;6135321;28;20027;-83
2021/05/17 07:39:34;;;;;;;4.03;1.08;;;18.40;42.10;;;;;;6176595;28;20339;-82
2021/05/17 07:42:36;;;;;;;3.33;1.00;;;18.50;42.00;;;;;;6194240;28;20195;-85
2021/05/17 07:45:42;;;;;;;2.60;1.33;;;18.50;41.90;;;;;;6192278;28;20566;-82
2021/05/17 07:52:04;;;;;;;4.75;0.98;;;18.80;41.70;;;;;;6186093;28;20038;-84
2021/05/17 07:55:06;;;;;;;4.47;1.27;;;18.90;41.30;;;;;;6194864;28;20097;-83
2021/05/17 07:58:07;;;;;;;7.82;1.30;;;19.20;41.20;;;;;;6180303;28;20054;-82
2021/05/17 08:01:11;;;;;;;3.33;1.17;;;19.30;40.90;;;;;;6179100;28;20038;-82
2021/05/17 08:04:16;;;;;;;2.33;0.65;;;19.50;40.60;;;;;;6186881;28;20068;-83
2021/05/17 08:07:21;;;;;;;2.78;0.80;;;19.60;40.20;;;;;;6197502;28;20098;-83
2021/05/17 08:10:23;;;;;;;2.65;0.60;;;19.80;39.90;;;;;;6195796;28;20428;-83
2021/05/17 08:13:33;;;;;;;2.17;0.73;;;19.80;39.60;;;;;;6262942;28;20056;-83
2021/05/17 08:16:35;;;;;;;3.35;0.77;;;19.80;39.40;;;;;;6321352;28;20091;-83
2021/05/17 08:19:37;;;;;;;5.30;1.00;;;19.70;39.40;;;;;;6295643;28;20047;-83
2021/05/17 08:22:38;;;;;;;2.47;0.90;;;19.70;39.50;;;;;;6296571;28;20466;-84
2021/05/17 08:25:42;;;;;;;4.10;1.17;;;19.60;39.50;;;;;;6303830;28;20094;-83
2021/05/17 08:28:43;;;;;;;1.48;0.45;;;19.50;39.70;;;;;;6298423;28;20465;-84
2021/05/17 08:31:47;;;;;;;3.83;0.90;;;19.60;39.80;;;;;;6285424;28;20036;-84
2021/05/17 08:34:48;;;;;;;4.30;0.85;;;19.50;39.70;;;;;;6306398;28;20432;-84
2021/05/17 08:37:49;;;;;;;2.35;0.80;;;19.50;39.70;;;;;;6301911;28;20097;-83
2021/05/17 08:40:52;;;;;;;2.70;0.70;;;19.60;39.80;;;;;;6284930;28;20036;-83
2021/05/17 08:43:54;;;;;;;8.77;1.02;;;19.50;39.70;;;;;;6287900;28;20040;-84
2021/05/17 08:46:56;;;;;;;1.17;0.50;;;19.50;39.60;;;;;;6326716;28;20046;-83
2021/05/17 08:49:57;;;;;;;6.93;1.25;;;19.50;39.90;;;;;;6314546;28;20057;-84
2021/05/17 08:53:01;;;;;;;5.43;0.73;;;19.40;40.10;;;;;;6329453;28;20028;-84
2021/05/17 08:56:05;;;;;;;2.13;0.80;;;19.50;40.20;;;;;;6312375;28;20139;-84
2021/05/17 08:59:06;;;;;;;4.07;1.02;;;19.60;40.00;;;;;;6311651;28;20340;-84
2021/05/17 09:02:07;;;;;;;4.25;0.57;;;19.50;39.90;;;;;;6312207;28;20094;-83
2021/05/17 09:05:27;;;;;;;5.88;1.00;;;19.50;39.50;;;;;;6327212;28;20370;-83
2021/05/17 09:08:39;;;;;;;4.28;0.85;;;19.40;39.60;;;;;;6322262;28;20029;-83
2021/05/17 09:11:48;;;;;;;3.45;0.90;;;19.40;39.80;;;;;;6322394;28;20189;-83
2021/05/17 09:14:55;;;;;;;20.10;2.60;;;19.30;39.80;;;;;;6317538;28;20112;-84
2021/05/17 09:18:06;;;;;;;6.72;1.83;;;19.40;40.40;;;;;;6313919;28;20063;-84
2021/05/17 09:21:07;;;;;;;16.20;2.20;;;19.50;39.70;;;;;;6294959;28;20520;-83
2021/05/17 09:24:37;;;;;;;7.93;0.90;;;19.50;39.60;;;;;;6313911;28;20040;-82
2021/05/17 09:27:38;;;;;;;3.60;0.65;;;19.60;39.50;;;;;;6309936;28;20078;-83
2021/05/17 09:30:49;;;;;;;11.45;1.50;;;19.80;39.40;;;;;;6308898;28;20047;-83
2021/05/17 09:33:56;;;;;;;6.75;1.00;;;19.90;39.30;;;;;;6317978;28;20035;-83
2021/05/17 09:37:05;;;;;;;15.15;1.08;;;20.20;38.90;;;;;;6300298;28;20530;-83
2021/05/17 09:40:20;;;;;;;2.42;0.70;;;20.40;38.50;;;;;;6285248;28;20040;-84
2021/05/17 09:43:24;;;;;;;3.88;0.88;;;20.60;38.10;;;;;;6310079;28;20036;-81
2021/05/17 09:46:25;;;;;;;2.20;0.60;;;20.70;37.70;;;;;;6326524;28;20076;-83
2021/05/17 09:49:49;;;;;;;5.57;0.80;;;20.60;37.40;;;;;;6298128;28;20047;-83
2021/05/17 09:52:50;;;;;;;4.80;1.10;;;20.50;37.30;;;;;;6307176;28;20032;-82
2021/05/17 09:55:52;;;;;;;7.00;1.17;;;20.40;37.40;;;;;;6324128;28;20036;-82
2021/05/17 09:58:58;;;;;;;3.50;0.43;;;20.30;37.40;;;;;;6312736;28;20123;-83
2021/05/17 10:02:01;;;;;;;9.82;1.10;;;20.20;37.30;;;;;;6281136;28;20335;-83
2021/05/17 10:05:33;;;;;;;11.85;0.73;;;20.10;37.10;;;;;;6305917;28;20086;-83
2021/05/17 10:08:35;;;;;;;5.03;1.00;;;20.10;37.10;;;;;;6305902;28;20036;-82
2021/05/17 10:11:37;;;;;;;8.73;1.10;;;20.20;37.00;;;;;;6305568;28;20036;-84
2021/05/17 10:14:38;;;;;;;40.33;1.67;;;20.40;37.10;;;;;;6304203;28;20167;-83
2021/05/17 10:17:40;;;;;;;14.68;1.13;;;20.60;36.70;;;;;;6305043;28;20097;-83
2021/05/17 10:20:45;;;;;;;7.38;0.70;;;20.80;36.30;;;;;;6311285;28;20040;-83
2021/05/17 10:23:48;;;;;;;2.28;0.60;;;21.00;36.00;;;;;;6310567;28;20032;-83
2021/05/17 10:26:50;;;;;;;13.25;1.70;;;21.20;35.80;;;;;;6299332;28;20089;-84
2021/05/17 10:30:01;;;;;;;10.25;1.00;;;21.20;35.70;;;;;;6288934;28;20037;-83
2021/05/17 10:33:05;;;;;;;3.63;0.80;;;21.20;35.50;;;;;;6282156;28;20058;-84
2021/05/17 10:36:07;;;;;;;11.68;0.70;;;21.40;35.50;;;;;;6298853;28;20415;-83
2021/05/17 10:39:13;;;;;;;7.72;0.95;;;21.70;35.00;;;;;;6280747;28;20040;-83
2021/05/17 10:48:51;;;;;;;4.30;0.80;;;22.40;33.20;;;;;;6301797;28;20028;-84
2021/05/17 10:52:05;;;;;;;4.10;0.57;;;22.40;31.70;;;;;;6299006;28;20040;-84
2021/05/17 10:55:12;;;;;;;21.35;4.80;;;22.30;31.40;;;;;;6281737;28;20044;-83
2021/05/17 11:00:21;;;;;;;1.42;0.50;;;22.30;31.40;;;;;;6293601;28;20043;-83
2021/05/17 11:01:51;;;;;;;1.88;0.45;;;22.40;31.20;;;;;;6300380;28;20071;-84
2021/05/17 11:04:58;;;;;;;1.90;0.73;;;22.60;30.50;;;;;;6292162;28;20039;-83
2021/05/17 11:08:04;;;;;;;3.35;1.20;;;22.60;30.20;;;;;;6306321;28;20032;-83
2021/05/17 11:11:14;;;;;;;3.60;1.77;;;22.60;30.40;;;;;;6284780;28;20028;-83
2021/05/17 11:14:22;;;;;;;1.50;0.68;;;23.10;29.80;;;;;;6323678;28;20032;-83
2021/05/17 11:17:23;;;;;;;2.37;0.77;;;23.50;29.10;;;;;;6300262;28;20032;-86
2021/05/17 11:20:49;;;;;;;5.65;0.73;;;24.30;28.70;;;;;;6292289;28;20423;-84
2021/05/17 11:24:03;;;;;;;1.85;0.50;;;25.10;27.50;;;;;;6293019;28;20130;-84
2021/05/17 11:27:06;;;;;;;2.08;0.57;;;25.80;26.80;;;;;;6293350;28;20047;-83
2021/05/17 11:30:37;;;;;;;1.10;0.30;;;26.30;25.80;;;;;;6239285;28;20045;-85
2021/05/17 11:33:59;;;;;;;1.23;0.82;;;26.20;25.80;;;;;;6262151;28;20033;-83
2021/05/17 11:37:11;;;;;;;3.85;0.30;;;26.40;25.30;;;;;;6235485;28;20037;-83
2021/05/17 11:40:31;;;;;;;0.30;0.30;;;26.40;25.20;;;;;;6260963;28;20025;-84
2021/05/17 11:43:42;;;;;;;2.55;1.20;;;26.30;24.90;;;;;;6227264;28;20082;-83
2021/05/17 11:47:00;;;;;;;0.50;0.30;;;26.60;24.70;;;;;;6265601;28;20056;-84
2021/05/17 11:50:04;;;;;;;1.27;0.60;;;26.90;24.80;;;;;;6243832;28;20087;-85
2021/05/17 11:53:13;;;;;;;0.55;0.30;;;26.60;24.60;;;;;;6283358;28;20037;-83
2021/05/17 11:56:19;;;;;;;;;;;25.90;25.00;;;;;;6258099;28;20038;-84
2021/05/17 11:59:24;;;;;;;;;;;25.30;25.50;;;;;;6266442;28;19919;-84
2021/05/17 12:02:26;;;;;;;3.15;0.35;;;24.90;25.90;;;;;;6279902;28;19913;-84
2021/05/17 12:05:28;;;;;;;11.15;1.05;;;24.50;26.30;;;;;;6284653;28;20044;-84
2021/05/17 12:08:29;;;;;;;2.92;0.52;;;24.60;26.80;;;;;;6258951;28;20055;-85
2021/05/17 12:11:52;;;;;;;2.75;0.30;;;24.90;27.10;;;;;;6255823;28;20036;-83
2021/05/17 12:15:55;;;;;;;2.22;0.50;;;25.50;26.60;;;;;;6257281;28;20030;-83
2021/05/17 12:19:06;;;;;;;1.23;0.30;;;26.10;26.10;;;;;;6099357;28;20443;-85
2021/05/17 12:22:10;;;;;;;2.38;0.55;;;26.70;25.90;;;;;;6235084;28;20030;-82
2021/05/17 12:25:15;;;;;;;88.07;4.10;;;27.20;25.20;;;;;;6289759;28;20051;-84
2021/05/17 12:28:18;;;;;;;31.40;2.30;;;27.30;25.20;;;;;;6306766;28;20044;-82
2021/05/17 12:31:26;;;;;;;1.20;0.55;;;27.20;25.40;;;;;;6295747;28;20039;-83
2021/05/17 12:34:28;;;;;;;1.50;0.50;;;27.00;25.00;;;;;;6309198;28;20043;-83
2021/05/17 12:37:33;;;;;;;1.27;0.20;;;27.20;24.60;;;;;;6292501;28;20043;-83
2021/05/17 12:40:40;;;;;;;2.47;1.02;;;27.40;24.50;;;;;;6292617;28;20060;-83
2021/05/17 12:43:44;;;;;;;0.63;0.40;;;27.90;24.10;;;;;;6325232;28;20544;-84
2021/05/17 12:47:03;;;;;;;1.20;0.40;;;28.50;23.30;;;;;;6284686;28;20429;-83
2021/05/17 12:50:04;;;;;;;;;;;29.10;22.80;;;;;;6293945;28;20028;-83
2021/05/17 12:53:15;;;;;;;3.17;0.40;;;29.60;22.10;;;;;;6309372;28;20352;-84
2021/05/17 12:56:24;;;;;;;0.88;0.30;;;30.00;21.50;;;;;;6301877;28;20033;-84
2021/05/17 12:59:26;;;;;;;1.38;0.30;;;30.50;21.20;;;;;;6285590;28;20124;-83
2021/05/17 13:02:28;;;;;;;2.92;0.40;;;31.20;21.30;;;;;;6305412;28;20047;-84
2021/05/17 13:05:47;;;;;;;64.72;2.80;;;32.00;20.20;;;;;;6308423;28;20225;-83
2021/05/17 13:08:51;;;;;;;2.55;0.30;;;32.90;19.50;;;;;;6320128;28;20118;-84
2021/05/17 13:11:56;;;;;;;0.40;0.25;;;33.80;18.60;;;;;;6308027;28;20039;-85
2021/05/17 13:14:57;;;;;;;2.47;0.30;;;34.20;18.10;;;;;;6305505;28;20024;-85
2021/05/17 13:18:10;;;;;;;2.08;0.52;;;34.80;17.30;;;;;;6308515;28;20033;-85
2021/05/17 13:21:15;;;;;;;2.85;0.52;;;35.10;17.30;;;;;;6295982;28;20039;-85
2021/05/17 13:31:06;;;;;;;1.25;0.38;;;32.10;19.40;;;;;;6322376;28;20072;-83
2021/05/17 13:34:12;;;;;;;1.20;0.40;;;32.80;19.10;;;;;;6310846;28;20032;-84
2021/05/17 13:37:13;;;;;;;2.53;0.47;;;33.10;18.60;;;;;;6313469;28;20326;-83
2021/05/17 13:40:18;;;;;;;1.27;0.55;;;33.70;18.30;;;;;;6324782;28;20039;-85
2021/05/17 13:43:22;;;;;;;1.73;0.40;;;34.50;18.00;;;;;;6297315;28;20103;-84
2021/05/17 13:46:27;;;;;;;1.25;0.50;;;35.00;17.60;;;;;;6291518;28;20020;-83
2021/05/17 13:49:32;;;;;;;3.90;0.35;;;36.20;17.10;;;;;;6304942;28;20028;-84
2021/05/17 13:52:34;;;;;;;1.60;0.52;;;37.30;16.10;;;;;;6308128;28;20034;-83
2021/05/17 13:55:36;;;;;;;4.18;0.85;;;37.90;15.80;;;;;;6307137;28;20070;-83
2021/05/17 13:58:38;;;;;;;1.90;0.80;;;37.50;15.90;;;;;;6291948;28;20514;-83
2021/05/17 14:01:42;;;;;;;1.95;0.40;;;37.70;15.90;;;;;;6307055;28;20085;-84
2021/05/17 14:04:44;;;;;;;2.08;0.32;;;38.20;15.20;;;;;;6287936;28;20071;-84
2021/05/17 14:07:45;;;;;;;0.47;0.22;;;38.70;15.10;;;;;;6319337;28;20103;-83
2021/05/17 14:10:46;;;;;;;1.35;0.30;;;39.00;14.40;;;;;;6324374;28;20414;-83
2021/05/17 14:13:47;;;;;;;1.60;0.50;;;38.80;14.50;;;;;;6306299;28;20040;-84
2021/05/17 14:16:55;;;;;;;6.72;0.80;;;39.00;14.50;;;;;;6307663;28;20039;-84
2021/05/17 14:19:56;;;;;;;1.05;0.30;;;39.40;14.40;;;;;;6290660;28;20036;-84
2021/05/17 14:22:59;;;;;;;2.40;0.40;;;39.90;14.10;;;;;;6308690;28;20437;-84
2021/05/17 14:26:00;;;;;;;46.53;3.42;;;40.10;13.90;;;;;;6323791;28;20028;-84
2021/05/17 14:29:04;;;;;;;67.93;4.28;;;40.00;14.00;;;;;;6296303;28;20051;-84
2021/05/17 14:32:06;;;;;;;4.07;0.70;;;40.20;13.90;;;;;;6291211;28;20061;-83
2021/05/17 14:35:08;;;;;;;126.25;6.57;;;40.20;13.80;;;;;;6307799;28;20452;-84
2021/05/17 14:38:09;;;;;;;3.72;0.25;;;40.30;13.80;;;;;;6301953;28;20036;-84
2021/05/17 14:41:10;;;;;;;1.70;0.52;;;40.80;13.50;;;;;;6283730;28;20040;-84
2021/05/17 14:44:11;;;;;;;6.97;0.45;;;40.10;13.60;;;;;;6321195;28;20036;-83
2021/05/17 14:47:14;;;;;;;1.30;0.30;;;38.10;14.50;;;;;;6306872;28;20043;-83
2021/05/17 14:50:15;;;;;;;1.33;0.38;;;36.80;15.10;;;;;;6298760;28;20048;-84
2021/05/17 14:53:17;;;;;;;1.40;0.25;;;36.30;15.10;;;;;;6302876;28;20101;-84
2021/05/17 14:56:18;;;;;;;0.75;0.43;;;35.00;16.10;;;;;;6308269;28;20043;-84
2021/05/17 14:59:19;;;;;;;1.65;0.63;;;33.50;17.00;;;;;;6306035;28;20127;-83
2021/05/17 15:02:22;;;;;;;2.03;0.40;;;32.00;17.90;;;;;;6280773;28;20033;-83
2021/05/17 15:05:23;;;;;;;1.33;0.50;;;31.10;18.70;;;;;;6283985;28;20032;-83
2021/05/17 15:08:24;;;;;;;2.40;0.50;;;30.40;19.40;;;;;;6320052;28;20047;-83
2021/05/17 15:11:25;;;;;;;1.10;0.40;;;29.80;19.90;;;;;;6315953;28;20043;-83
2021/05/17 15:14:27;;;;;;;2.00;0.35;;;29.40;20.20;;;;;;6290547;28;20129;-83
2021/05/17 15:17:32;;;;;;;0.75;0.30;;;29.30;20.40;;;;;;6321814;28;20061;-84
2021/05/17 15:20:35;;;;;;;0.50;0.30;;;29.70;20.00;;;;;;6308546;28;20460;-83
2021/05/17 15:23:36;;;;;;;0.70;0.40;;;29.40;20.10;;;;;;6324849;28;20115;-82
2021/05/17 15:26:42;;;;;;;3.80;0.38;;;28.90;20.50;;;;;;6311299;28;20086;-83
2021/05/17 15:29:51;;;;;;;0.38;0.28;;;28.50;21.00;;;;;;6306478;28;20056;-83
2021/05/17 15:32:54;;;;;;;1.55;0.47;;;28.10;21.30;;;;;;6282756;28;20025;-83
2021/05/17 15:35:56;;;;;;;0.38;0.30;;;28.70;20.60;;;;;;6289962;28;20460;-84
2021/05/17 15:38:57;;;;;;;0.80;0.30;;;29.10;20.30;;;;;;6303770;28;20032;-83
2021/05/17 15:41:58;;;;;;;2.47;0.30;;;29.20;20.10;;;;;;6282874;28;20040;-84
2021/05/17 15:45:00;;;;;;;0.85;0.40;;;29.10;20.10;;;;;;6283339;28;20729;-83
2021/05/17 15:48:02;;;;;;;0.68;0.60;;;28.90;20.30;;;;;;6306958;28;20024;-84
2021/05/17 15:51:04;;;;;;;0.45;0.32;;;28.60;20.70;;;;;;6315161;28;20052;-84
2021/05/17 15:54:05;;;;;;;1.65;0.30;;;28.20;21.10;;;;;;6310781;28;20471;-84
2021/05/17 15:57:09;;;;;;;0.40;0.25;;;27.90;21.40;;;;;;6308004;28;20032;-84
2021/05/17 16:00:14;;;;;;;0.30;0.30;;;27.30;21.80;;;;;;6314295;28;20039;-84
2021/05/17 16:03:17;;;;;;;2.20;0.45;;;26.90;22.30;;;;;;6274692;28;20036;-84
2021/05/17 16:06:18;;;;;;;1.63;0.47;;;26.40;22.70;;;;;;6324231;28;20062;-83
2021/05/17 16:09:19;;;;;;;2.65;0.63;;;26.10;23.00;;;;;;6317972;28;20510;-85
2021/05/17 16:12:22;;;;;;;1.10;0.40;;;25.90;23.30;;;;;;6327730;28;20093;-84
2021/05/17 16:21:28;;;;;;;0.43;0.20;;;25.20;24.10;;;;;;6313266;28;20036;-83
2021/05/17 16:24:29;;;;;;;1.02;0.30;;;25.00;24.50;;;;;;6307625;28;20155;-83
2021/05/17 16:27:30;;;;;;;0.52;0.30;;;24.70;24.80;;;;;;6308039;28;20029;-83
2021/05/17 16:30:32;;;;;;;2.42;0.47;;;24.50;25.30;;;;;;6306895;28;20043;-83
2021/05/17 16:33:34;;;;;;;4.43;0.40;;;24.30;25.50;;;;;;6306882;28;20043;-84
2021/05/17 16:36:38;;;;;;;5.22;0.47;;;24.20;25.90;;;;;;6322570;28;20127;-82
2021/05/17 16:39:39;;;;;;;1.70;0.40;;;24.20;26.20;;;;;;6322652;28;20179;-84
2021/05/17 16:42:40;;;;;;;2.92;0.40;;;25.20;25.50;;;;;;6280814;28;20489;-83
2021/05/17 16:45:41;;;;;;;1.35;0.32;;;26.60;24.50;;;;;;6298439;28;20429;-84
2021/05/17 16:48:59;;;;;;;1.58;0.57;;;27.00;23.90;;;;;;6296947;28;20510;-83
2021/05/17 16:52:01;;;;;;;5.47;0.40;;;26.80;24.10;;;;;;6300813;28;20028;-83
2021/05/17 16:55:03;;;;;;;1.88;0.55;;;26.30;24.40;;;;;;6311439;28;20439;-83
2021/05/17 16:58:04;;;;;;;1.00;0.43;;;25.80;24.90;;;;;;6307359;28;20074;-84
2021/05/17 17:01:08;;;;;;;0.30;0.20;;;25.40;25.30;;;;;;6309312;28;20097;-84